createdAt,value
2023-02-12T00:01:17.689Z,107.55
2023-02-12T00:03:45.342Z,108.28
2023-02-12T00:06:15.736Z,116.57
2023-02-12T00:08:44.131Z,116.50
2023-02-12T00:11:14.748Z,104.45
2023-02-12T00:13:42.908Z,111.15
2023-02-12T00:16:14.810Z,114.18
2023-02-12T00:18:43.158Z,103.78
2023-02-12T00:21:11.008Z,111.35
2023-02-12T00:23:41.237Z,117.47
2023-02-12T00:26:15.156Z,117.22
2023-02-12T00:28:47.427Z,116.47
2023-02-12T00:31:21.954Z,105.80
2023-02-12T00:33:50.038Z,110.45
2023-02-12T00:36:21.122Z,110.85
2023-02-12T00:38:49.722Z,118.63
2023-02-12T00:41:17.331Z,119.47
2023-02-12T00:43:45.362Z,116.55
2023-02-12T00:46:13.335Z,108.15
2023-02-12T00:48:41.177Z,118.43
2023-02-12T00:51:09.283Z,118.90
2023-02-12T00:53:37.486Z,112.05
2023-02-12T00:56:05.584Z,114.65
2023-02-12T00:58:36.206Z,107.80
2023-02-12T01:01:04.326Z,116.35
2023-02-12T01:03:31.861Z,116.00
2023-02-12T01:06:00.310Z,118.40
2023-02-12T01:08:27.922Z,126.30
2023-02-12T01:11:02.504Z,116.80
2023-02-12T01:13:34.017Z,124.78
2023-02-12T01:16:09.014Z,112.38
2023-02-12T01:18:37.803Z,103.80
2023-02-12T01:21:21.662Z,115.90
2023-02-12T01:23:50.087Z,111.43
2023-02-12T01:26:19.606Z,120.35
2023-02-12T01:28:54.320Z,119.68
2023-02-12T01:31:24.732Z,120.68
2023-02-12T01:33:54.746Z,117.93
2023-02-12T01:36:23.494Z,115.25
2023-02-12T01:38:51.559Z,126.78
2023-02-12T01:41:23.372Z,127.43
2023-02-12T01:44:05.989Z,131.32
2023-02-12T01:46:34.268Z,119.13
2023-02-12T01:49:03.282Z,107.70
2023-02-12T01:51:32.679Z,111.78
2023-02-12T01:54:05.247Z,114.82
2023-02-12T01:56:34.454Z,113.18
2023-02-12T01:59:02.771Z,122.28
2023-02-12T02:01:34.018Z,107.22
2023-02-12T02:04:07.858Z,115.15
2023-02-12T02:06:42.342Z,113.95
2023-02-12T02:09:10.133Z,124.68
2023-02-12T02:11:56.318Z,104.75
2023-02-12T02:14:34.155Z,119.63
2023-02-12T02:17:39.546Z,115.63
2023-02-12T02:20:29.220Z,123.78
2023-02-12T02:23:05.887Z,127.88
2023-02-12T02:26:08.088Z,121.38
2023-02-12T02:29:00.517Z,134.90
2023-02-12T02:31:48.659Z,118.57
2023-02-12T02:34:21.906Z,123.55
2023-02-12T02:37:00.149Z,139.45
2023-02-12T02:40:09.967Z,125.75
2023-02-12T02:42:44.109Z,122.03
2023-02-12T02:45:13.822Z,127.82
2023-02-12T02:47:53.011Z,133.50
2023-02-12T02:50:24.928Z,137.68
2023-02-12T02:53:16.057Z,147.40
2023-02-12T02:55:49.718Z,148.60
2023-02-12T02:58:20.684Z,170.63
2023-02-12T03:01:11.365Z,140.98
2023-02-12T03:03:52.161Z,148.13
2023-02-12T03:06:28.027Z,150.90
2023-02-12T03:09:05.481Z,148.52
2023-02-12T03:11:34.593Z,133.75
2023-02-12T03:14:18.041Z,134.02
2023-02-12T03:17:35.603Z,123.60
2023-02-12T03:20:12.384Z,121.00
2023-02-12T03:22:45.000Z,137.63
2023-02-12T03:25:19.261Z,115.45
2023-02-12T03:28:00.839Z,131.00
2023-02-12T03:30:39.449Z,121.70
2023-02-12T03:33:51.721Z,112.88
2023-02-12T03:36:53.250Z,107.05
2023-02-12T03:39:39.212Z,108.18
2023-02-12T03:42:14.718Z,101.80
2023-02-12T03:44:56.454Z,106.13
2023-02-12T03:47:31.749Z,103.10
2023-02-12T03:50:42.289Z,109.75
2023-02-12T03:53:09.822Z,109.18
2023-02-12T03:55:42.720Z,110.43
2023-02-12T03:58:14.892Z,118.13
2023-02-12T04:00:43.241Z,109.18
2023-02-12T04:03:11.107Z,103.82
2023-02-12T04:05:38.624Z,111.82
2023-02-12T04:08:09.268Z,110.18
2023-02-12T04:11:15.549Z,102.95
2023-02-12T04:13:59.779Z,99.30
2023-02-12T04:16:40.719Z,97.50
2023-02-12T04:19:13.274Z,111.03
2023-02-12T04:21:46.573Z,107.47
2023-02-12T04:24:31.060Z,113.00
2023-02-12T04:27:07.275Z,102.45
2023-02-12T04:29:53.388Z,113.65
2023-02-12T04:32:44.137Z,168.98
2023-02-12T04:35:32.855Z,113.30
2023-02-12T04:38:41.811Z,172.90
2023-02-12T04:41:09.815Z,250.68
2023-02-12T04:43:37.721Z,296.52
2023-02-12T04:46:07.795Z,129.50
2023-02-12T04:48:46.011Z,180.82
2023-02-12T04:51:13.469Z,191.27
2023-02-12T04:53:41.262Z,158.23
2023-02-12T04:56:13.201Z,218.85
2023-02-12T04:58:41.762Z,118.35
2023-02-12T05:01:10.351Z,115.38
2023-02-12T05:03:38.232Z,91.25
2023-02-12T05:06:08.034Z,99.03
2023-02-12T05:08:35.921Z,81.70
2023-02-12T05:11:05.305Z,97.82
2023-02-12T05:13:32.896Z,98.25
2023-02-12T05:16:00.915Z,102.70
2023-02-12T05:18:29.162Z,100.43
2023-02-12T05:20:58.647Z,109.30
2023-02-12T05:23:28.343Z,89.95
2023-02-12T05:25:59.030Z,105.28
2023-02-12T05:28:27.164Z,103.63
2023-02-12T05:30:55.125Z,150.68
2023-02-12T05:33:22.662Z,152.93
2023-02-12T05:35:50.230Z,93.78
2023-02-12T05:38:17.760Z,174.02
2023-02-12T05:45:28.352Z,186.48
2023-02-12T05:47:56.660Z,162.45
2023-02-12T05:50:24.262Z,116.70
2023-02-12T05:53:01.325Z,103.63
2023-02-12T05:55:29.128Z,273.50
2023-02-12T05:57:56.600Z,169.85
2023-02-12T06:00:24.137Z,191.27
2023-02-12T06:02:51.786Z,139.55
2023-02-12T06:05:19.290Z,308.55
2023-02-12T06:07:46.754Z,219.93
2023-02-12T06:10:14.340Z,151.93
2023-02-12T06:12:41.758Z,161.15
2023-02-12T06:15:09.517Z,263.73
2023-02-12T06:17:36.979Z,161.73
2023-02-12T06:20:04.761Z,155.48
2023-02-12T06:22:32.279Z,215.82
2023-02-12T06:24:59.800Z,150.93
2023-02-12T06:27:27.284Z,220.88
2023-02-12T06:29:54.720Z,116.10
2023-02-12T06:32:22.702Z,89.55
2023-02-12T06:34:51.545Z,127.70
2023-02-12T06:37:19.028Z,113.97
2023-02-12T06:39:46.501Z,117.03
2023-02-12T06:42:13.976Z,135.60
2023-02-12T06:44:41.527Z,111.70
2023-02-12T06:47:09.042Z,115.57
2023-02-12T06:49:36.586Z,109.63
2023-02-12T06:52:04.104Z,107.80
2023-02-12T06:54:31.595Z,117.20
2023-02-12T06:56:59.036Z,95.80
2023-02-12T06:59:26.495Z,110.68
2023-02-12T07:01:53.945Z,112.45
2023-02-12T07:04:21.808Z,87.53
2023-02-12T07:06:49.224Z,108.35
2023-02-12T07:09:16.809Z,101.72
2023-02-12T07:11:44.294Z,88.78
2023-02-12T07:14:16.737Z,84.93
2023-02-12T07:16:44.242Z,101.30
2023-02-12T07:19:14.152Z,92.32
2023-02-12T07:21:41.651Z,88.38
2023-02-12T07:24:12.224Z,98.90
2023-02-12T07:26:40.823Z,91.50
2023-02-12T07:29:08.514Z,83.68
2023-02-12T07:31:36.080Z,93.75
2023-02-12T07:34:03.533Z,101.03
2023-02-12T07:36:33.038Z,87.38
2023-02-12T07:39:01.759Z,78.75
2023-02-12T07:41:31.810Z,77.00
2023-02-12T07:44:07.051Z,78.22
2023-02-12T07:46:48.699Z,69.28
2023-02-12T07:49:19.387Z,70.88
2023-02-12T07:51:48.268Z,88.53
2023-02-12T07:54:15.928Z,72.80
2023-02-12T07:56:47.220Z,80.32
2023-02-12T07:59:18.152Z,62.00
2023-02-12T08:01:50.709Z,76.10
2023-02-12T08:04:21.029Z,80.75
2023-02-12T08:06:50.817Z,78.75
2023-02-12T08:09:21.186Z,71.10
2023-02-12T08:11:49.207Z,70.18
2023-02-12T08:14:18.740Z,72.95
2023-02-12T08:16:48.876Z,76.88
2023-02-12T08:19:21.755Z,71.10
2023-02-12T08:21:53.159Z,68.95
2023-02-12T08:24:22.346Z,66.78
2023-02-12T08:26:50.899Z,65.45
2023-02-12T08:29:21.195Z,68.70
2023-02-12T08:31:50.261Z,79.38
2023-02-12T08:34:21.537Z,72.88
2023-02-12T08:36:50.621Z,76.90
2023-02-12T08:39:18.782Z,72.40
2023-02-12T08:41:47.377Z,60.95
2023-02-12T08:44:15.793Z,65.00
2023-02-12T08:46:50.265Z,54.17
2023-02-12T08:49:21.364Z,54.30
2023-02-12T08:51:51.836Z,57.03
2023-02-12T08:54:22.619Z,63.55
2023-02-12T08:56:50.703Z,58.03
2023-02-12T08:59:18.415Z,54.55
2023-02-12T09:01:46.071Z,56.60
2023-02-12T09:04:18.146Z,56.90
2023-02-12T09:06:46.742Z,49.00
2023-02-12T09:09:15.052Z,48.47
2023-02-12T09:11:44.829Z,47.67
2023-02-12T09:14:16.726Z,43.38
2023-02-12T09:16:44.967Z,43.80
2023-02-12T09:19:14.225Z,40.20
2023-02-12T09:21:42.054Z,43.78
2023-02-12T09:24:10.412Z,42.53
2023-02-12T09:26:39.586Z,49.83
2023-02-12T09:29:07.060Z,57.08
2023-02-12T09:31:34.762Z,52.00
2023-02-12T09:34:06.019Z,51.30
2023-02-12T09:36:34.459Z,46.85
2023-02-12T09:39:02.021Z,44.53
2023-02-12T09:41:42.797Z,42.55
2023-02-12T09:44:48.438Z,50.72
2023-02-12T09:47:34.099Z,49.05
2023-02-12T09:50:33.181Z,50.03
2023-02-12T09:53:02.090Z,49.42
2023-02-12T09:55:31.926Z,49.47
2023-02-12T09:58:02.314Z,40.70
2023-02-12T10:00:31.964Z,47.50
2023-02-12T10:03:05.995Z,45.47
2023-02-12T10:05:41.217Z,42.05
2023-02-12T10:08:39.649Z,38.13
2023-02-12T10:11:07.111Z,41.35
2023-02-12T10:13:52.917Z,41.08
2023-02-12T10:16:38.673Z,38.25
2023-02-12T10:19:33.397Z,34.80
2023-02-12T10:22:28.947Z,34.33
2023-02-12T10:25:04.746Z,38.95
2023-02-12T10:27:48.137Z,38.35
2023-02-12T10:30:50.176Z,35.97
2023-02-12T10:33:40.611Z,31.90
2023-02-12T10:36:17.103Z,31.45
2023-02-12T10:38:50.634Z,34.95
2023-02-12T10:41:18.371Z,30.65
2023-02-12T10:43:45.947Z,30.95
2023-02-12T10:46:17.453Z,30.30
2023-02-12T10:48:49.773Z,23.50
2023-02-12T10:51:44.703Z,26.60
2023-02-12T10:54:32.062Z,28.80
2023-02-12T10:57:06.535Z,26.33
2023-02-12T10:59:35.677Z,24.08
2023-02-12T11:02:03.584Z,28.63
2023-02-12T11:04:33.728Z,23.98
2023-02-12T11:07:09.946Z,21.10
2023-02-12T11:09:45.517Z,28.35
2023-02-12T11:12:36.571Z,28.20
2023-02-12T11:15:08.605Z,25.58
2023-02-12T11:17:41.500Z,24.75
2023-02-12T11:20:17.851Z,23.05
2023-02-12T11:22:56.262Z,21.40
2023-02-12T11:25:27.080Z,24.88
2023-02-12T11:28:13.979Z,22.63
2023-02-12T11:30:54.136Z,23.25
2023-02-12T11:33:33.394Z,24.35
2023-02-12T11:36:15.441Z,20.45
2023-02-12T11:39:03.950Z,20.33
2023-02-12T11:41:38.135Z,19.17
2023-02-12T11:44:26.694Z,18.42
2023-02-12T11:47:25.381Z,21.95
2023-02-12T11:50:24.305Z,15.13
2023-02-12T11:52:54.024Z,20.38
2023-02-12T11:55:33.404Z,16.70
2023-02-12T11:58:13.352Z,22.50
2023-02-12T12:00:52.312Z,20.10
2023-02-12T12:03:34.933Z,16.25
2023-02-12T12:06:26.832Z,17.67
2023-02-12T12:09:03.287Z,13.70
2023-02-12T12:11:41.267Z,21.52
2023-02-12T12:14:24.659Z,22.58
2023-02-12T12:17:27.637Z,16.13
2023-02-12T12:20:14.326Z,14.98
2023-02-12T12:23:11.280Z,17.92
2023-02-12T12:25:44.503Z,18.17
2023-02-12T12:28:34.654Z,17.95
2023-02-12T12:31:15.128Z,20.75
2023-02-12T12:33:53.513Z,17.10
2023-02-12T12:36:51.295Z,15.13
2023-02-12T12:39:47.121Z,14.77
2023-02-12T12:42:20.410Z,20.58
2023-02-12T12:45:15.531Z,17.70
2023-02-12T12:48:01.404Z,16.52
2023-02-12T12:50:45.965Z,16.63
2023-02-12T12:53:34.530Z,17.52
2023-02-12T12:56:05.051Z,20.67
2023-02-12T12:58:38.732Z,20.63
2023-02-12T13:01:34.230Z,17.83
2023-02-12T13:04:44.916Z,16.30
2023-02-12T13:07:38.495Z,17.23
2023-02-12T13:10:43.147Z,19.13
2023-02-12T13:13:26.391Z,13.07
2023-02-12T13:16:11.449Z,16.20
2023-02-12T13:18:51.204Z,27.00
2023-02-12T13:21:43.445Z,22.90
2023-02-12T13:24:38.675Z,17.42
2023-02-12T13:27:17.237Z,18.75
2023-02-12T13:29:53.014Z,15.63
2023-02-12T13:32:24.379Z,16.48
2023-02-12T13:34:54.232Z,20.40
2023-02-12T13:37:54.858Z,16.50
2023-02-12T13:40:28.333Z,21.92
2023-02-12T13:43:19.090Z,26.15
2023-02-12T13:46:14.216Z,18.05
2023-02-12T13:49:16.772Z,17.13
2023-02-12T13:51:57.383Z,16.00
2023-02-12T13:54:41.140Z,17.38
2023-02-12T13:57:13.765Z,22.90
2023-02-12T13:59:44.362Z,22.40
2023-02-12T14:02:33.835Z,16.30
2023-02-12T14:05:16.350Z,12.65
2023-02-12T14:07:48.000Z,26.88
2023-02-12T14:10:41.870Z,20.52
2023-02-12T14:13:17.789Z,13.98
2023-02-12T14:16:40.330Z,13.15
2023-02-12T14:19:38.526Z,14.68
2023-02-12T14:22:35.202Z,20.30
2023-02-12T14:25:15.106Z,10.80
2023-02-12T14:27:45.512Z,13.70
2023-02-12T14:30:13.317Z,15.77
2023-02-12T14:32:56.080Z,15.25
2023-02-12T14:35:26.266Z,14.73
2023-02-12T14:37:58.831Z,15.75
2023-02-12T14:40:40.715Z,10.98
2023-02-12T14:43:29.813Z,11.88
2023-02-12T14:45:59.999Z,11.82
2023-02-12T14:48:51.169Z,14.82
2023-02-12T14:52:00.053Z,15.00
2023-02-12T14:54:49.979Z,13.85
2023-02-12T14:57:29.604Z,10.52
2023-02-12T15:00:06.156Z,11.82
2023-02-12T15:02:36.547Z,9.27
2023-02-12T15:05:16.546Z,13.23
2023-02-12T15:07:49.327Z,8.93
2023-02-12T15:10:20.721Z,14.23
2023-02-12T15:13:18.903Z,8.38
2023-02-12T15:16:09.551Z,7.70
2023-02-12T15:19:06.668Z,7.55
2023-02-12T15:21:35.800Z,9.45
2023-02-12T15:24:09.331Z,8.45
2023-02-12T15:26:41.863Z,7.63
2023-02-12T15:29:52.716Z,9.35
2023-02-12T15:32:27.400Z,12.13
2023-02-12T15:34:56.271Z,11.15
2023-02-12T15:37:27.510Z,11.35
2023-02-12T15:40:00.564Z,8.75
2023-02-12T15:42:30.914Z,10.73
2023-02-12T15:45:10.732Z,12.73
2023-02-12T15:47:38.280Z,12.68
2023-02-12T15:50:06.349Z,10.88
2023-02-12T15:52:38.879Z,12.75
2023-02-12T15:55:14.334Z,9.98
2023-02-12T15:57:44.073Z,12.00
2023-02-12T16:00:28.979Z,10.77
2023-02-12T16:02:56.679Z,13.23
2023-02-12T16:05:25.250Z,10.25
2023-02-12T16:07:53.610Z,8.30
2023-02-12T16:10:21.942Z,13.65
2023-02-12T16:12:51.051Z,9.77
2023-02-12T16:15:30.796Z,10.20
2023-02-12T16:18:00.001Z,9.77
2023-02-12T16:20:30.883Z,12.10
2023-02-12T16:22:59.843Z,10.77
2023-02-12T16:25:29.136Z,10.82
2023-02-12T16:28:07.577Z,9.55
2023-02-12T16:30:42.887Z,9.68
2023-02-12T16:33:32.192Z,10.57
2023-02-12T16:36:35.070Z,11.77
2023-02-12T16:39:08.602Z,9.50
2023-02-12T16:41:53.802Z,11.05
2023-02-12T16:44:26.205Z,13.60
2023-02-12T16:46:56.668Z,13.73
2023-02-12T16:49:26.675Z,15.63
2023-02-12T16:52:14.431Z,17.73
2023-02-12T16:54:42.020Z,17.80
2023-02-12T16:57:12.469Z,14.68
2023-02-12T16:59:43.396Z,17.63
2023-02-12T17:02:14.094Z,15.27
2023-02-12T17:04:42.454Z,15.40
2023-02-12T17:07:22.566Z,15.45
2023-02-12T17:09:50.515Z,15.38
2023-02-12T17:12:18.227Z,16.50
2023-02-12T17:14:45.782Z,14.25
2023-02-12T17:17:13.221Z,14.48
2023-02-12T17:19:40.750Z,16.85
2023-02-12T17:22:17.681Z,14.32
2023-02-12T17:24:49.448Z,16.40
2023-02-12T17:27:20.739Z,15.73
2023-02-12T17:29:48.191Z,14.02
2023-02-12T17:32:16.444Z,14.40
2023-02-12T17:34:49.277Z,15.30
2023-02-12T17:37:18.439Z,12.20
2023-02-12T17:39:45.954Z,15.75
2023-02-12T17:42:13.496Z,15.48
2023-02-12T17:44:41.706Z,16.85
2023-02-12T17:47:09.245Z,15.27
2023-02-12T17:49:38.735Z,18.05
2023-02-12T17:52:07.478Z,18.35
2023-02-12T17:54:35.164Z,16.52
2023-02-12T17:57:02.996Z,18.85
2023-02-12T17:59:30.593Z,21.27
2023-02-12T18:02:01.306Z,18.20
2023-02-12T18:04:28.917Z,16.55
2023-02-12T18:06:57.742Z,18.40
2023-02-12T18:09:25.248Z,19.42
2023-02-12T18:11:52.914Z,19.95
2023-02-12T18:14:20.425Z,22.67
2023-02-12T18:16:47.924Z,18.33
2023-02-12T18:19:15.633Z,19.23
2023-02-12T18:21:43.087Z,24.85
2023-02-12T18:24:11.087Z,24.42
2023-02-12T18:26:38.484Z,19.50
2023-02-12T18:29:06.112Z,19.52
2023-02-12T18:31:33.787Z,24.10
2023-02-12T18:34:01.313Z,22.55
2023-02-12T18:36:28.776Z,22.13
2023-02-12T18:38:56.262Z,21.98
2023-02-12T18:41:26.405Z,22.50
2023-02-12T18:43:54.892Z,23.30
2023-02-12T18:46:28.726Z,25.70
2023-02-12T18:48:57.244Z,26.98
2023-02-12T18:51:27.793Z,24.98
2023-02-12T18:54:05.267Z,25.17
2023-02-12T18:56:36.797Z,21.25
2023-02-12T18:59:05.446Z,20.30
2023-02-12T19:01:34.999Z,22.52
2023-02-12T19:04:05.115Z,27.55
2023-02-12T19:06:34.411Z,24.17
2023-02-12T19:09:03.740Z,27.13
2023-02-12T19:11:31.427Z,28.05
2023-02-12T19:13:59.194Z,25.00
2023-02-12T19:16:27.266Z,24.33
2023-02-12T19:18:58.938Z,23.40
2023-02-12T19:21:26.571Z,22.17
2023-02-12T19:23:56.231Z,23.83
2023-02-12T19:26:24.661Z,24.80
2023-02-12T19:28:52.291Z,26.02
2023-02-12T19:31:23.385Z,31.38
2023-02-12T19:33:55.709Z,30.98
2023-02-12T19:36:24.658Z,30.30
2023-02-12T19:38:52.278Z,31.90
2023-02-12T19:41:23.896Z,32.95
2023-02-12T19:43:59.764Z,30.92
2023-02-12T19:46:30.364Z,30.00
2023-02-12T19:49:02.714Z,25.73
2023-02-12T19:51:31.027Z,29.27
2023-02-12T19:54:02.684Z,27.05
2023-02-12T19:56:30.733Z,28.05
2023-02-12T19:58:58.969Z,30.60
2023-02-12T20:01:27.197Z,27.67
2023-02-12T20:03:55.356Z,25.02
2023-02-12T20:06:25.534Z,24.88
2023-02-12T20:08:53.338Z,25.25
2023-02-12T20:11:23.582Z,30.55
2023-02-12T20:13:51.393Z,28.63
2023-02-12T20:16:21.850Z,26.70
2023-02-12T20:18:52.887Z,27.52
2023-02-12T20:21:24.966Z,22.85
2023-02-12T20:23:52.474Z,23.50
2023-02-12T20:26:20.042Z,21.05
2023-02-12T20:28:48.966Z,23.80
2023-02-12T20:31:20.663Z,24.08
2023-02-12T20:33:52.934Z,19.73
2023-02-12T20:36:20.382Z,19.98
2023-02-12T20:38:52.037Z,19.42
2023-02-12T20:41:19.777Z,17.33
2023-02-12T20:43:47.319Z,21.92
2023-02-12T20:46:17.351Z,22.88
2023-02-12T20:48:44.965Z,19.40
2023-02-12T20:51:20.874Z,20.30
2023-02-12T20:53:49.045Z,21.08
2023-02-12T20:56:20.061Z,23.58
2023-02-12T20:58:48.142Z,24.13
2023-02-12T21:01:19.053Z,23.10
2023-02-12T21:03:46.972Z,20.25
2023-02-12T21:06:15.192Z,22.55
2023-02-12T21:08:43.339Z,23.65
2023-02-12T21:11:17.248Z,24.30
2023-02-12T21:13:58.532Z,23.08
2023-02-12T21:16:34.532Z,22.38
2023-02-12T21:19:02.928Z,20.73
2023-02-12T21:21:33.201Z,21.17
2023-02-12T21:24:02.324Z,21.38
2023-02-12T21:26:32.026Z,26.65
2023-02-12T21:29:01.054Z,26.00
2023-02-12T21:31:34.974Z,28.48
2023-02-12T21:34:05.007Z,26.85
2023-02-12T21:36:35.685Z,26.70
2023-02-12T21:39:07.440Z,29.55
2023-02-12T21:41:37.947Z,31.17
2023-02-12T21:44:17.488Z,28.92
2023-02-12T21:46:46.152Z,31.52
2023-02-12T21:49:17.583Z,28.70
2023-02-12T21:51:45.442Z,25.63
2023-02-12T21:54:17.934Z,27.55
2023-02-12T21:56:47.508Z,27.10
2023-02-12T21:59:15.235Z,31.27
2023-02-12T22:01:47.112Z,32.60
2023-02-12T22:04:15.640Z,30.15
2023-02-12T22:06:46.182Z,28.88
2023-02-12T22:09:16.368Z,25.15
2023-02-12T22:11:44.269Z,21.05
2023-02-12T22:14:15.371Z,25.60
2023-02-12T22:16:43.045Z,32.30
2023-02-12T22:19:10.527Z,36.65
2023-02-12T22:21:41.067Z,41.20
2023-02-12T22:24:11.904Z,32.70
2023-02-12T22:26:39.383Z,24.92
2023-02-12T22:29:09.670Z,21.23
2023-02-12T22:31:39.699Z,17.52
2023-02-12T22:34:12.666Z,18.80
2023-02-12T22:36:41.217Z,20.85
2023-02-12T22:39:10.009Z,18.33
2023-02-12T22:41:38.104Z,20.63
2023-02-12T22:44:05.639Z,19.55
2023-02-12T22:46:33.705Z,29.05
2023-02-12T22:49:01.153Z,31.67
2023-02-12T22:51:31.418Z,48.25
2023-02-12T22:53:59.439Z,55.70
2023-02-12T22:56:27.251Z,40.45
2023-02-12T22:58:59.672Z,33.15
2023-02-12T23:01:29.131Z,23.05
2023-02-12T23:03:57.364Z,19.63
2023-02-12T23:06:30.534Z,17.67
2023-02-12T23:09:01.279Z,16.38
2023-02-12T23:11:30.480Z,13.15
2023-02-12T23:13:58.716Z,12.98
2023-02-12T23:16:26.513Z,18.40
2023-02-12T23:18:58.644Z,20.02
2023-02-12T23:21:27.972Z,17.88
2023-02-12T23:23:56.351Z,19.33
2023-02-12T23:26:24.096Z,19.50
2023-02-12T23:28:51.694Z,20.30
2023-02-12T23:31:19.380Z,20.33
2023-02-12T23:33:47.034Z,17.55
2023-02-12T23:36:15.280Z,16.50
2023-02-12T23:38:42.690Z,16.38
2023-02-12T23:41:10.227Z,16.20
2023-02-12T23:43:37.711Z,16.98
2023-02-12T23:46:05.434Z,15.30
2023-02-12T23:48:32.915Z,15.15
2023-02-12T23:51:00.487Z,13.63
2023-02-12T23:53:27.919Z,14.30
2023-02-12T23:55:55.427Z,16.10
2023-02-12T23:58:23.048Z,17.15
